sensor_id;sensor_type;location;lat;lon;timestamp;temperature;humidity
44121;DHT22;29783;52.504;13.478;2023-02-07T00:01:27;-3272.50;93.10
44121;DHT22;29783;52.504;13.478;2023-02-07T00:03:53;-3272.60;93.10
44121;DHT22;29783;52.504;13.478;2023-02-07T00:06:26;-3272.60;93.20
44121;DHT22;29783;52.504;13.478;2023-02-07T00:08:53;-3272.70;93.30
44121;DHT22;29783;52.504;13.478;2023-02-07T00:11:20;-3272.70;93.40
44121;DHT22;29783;52.504;13.478;2023-02-07T00:13:52;-3272.70;93.30
44121;DHT22;29783;52.504;13.478;2023-02-07T00:16:19;-3272.70;93.30
44121;DHT22;29783;52.504;13.478;2023-02-07T00:18:45;-3272.50;92.90
44121;DHT22;29783;52.504;13.478;2023-02-07T00:21:14;-3272.40;92.80
44121;DHT22;29783;52.504;13.478;2023-02-07T00:23:40;-3272.40;92.80
44121;DHT22;29783;52.504;13.478;2023-02-07T00:26:07;-3272.40;92.70
44121;DHT22;29783;52.504;13.478;2023-02-07T00:28:33;-3272.40;92.70
44121;DHT22;29783;52.504;13.478;2023-02-07T00:33:31;-3272.40;92.70
44121;DHT22;29783;52.504;13.478;2023-02-07T00:35:59;-3272.40;92.80
44121;DHT22;29783;52.504;13.478;2023-02-07T00:38:27;-3272.40;92.80
44121;DHT22;29783;52.504;13.478;2023-02-07T00:40:53;-3272.30;92.70
44121;DHT22;29783;52.504;13.478;2023-02-07T00:43:18;-3272.30;92.60
44121;DHT22;29783;52.504;13.478;2023-02-07T00:45:44;-3272.30;92.60
44121;DHT22;29783;52.504;13.478;2023-02-07T00:48:10;-3272.30;92.60
44121;DHT22;29783;52.504;13.478;2023-02-07T00:50:35;-3272.40;92.60
44121;DHT22;29783;52.504;13.478;2023-02-07T00:53:01;-3272.30;92.60
44121;DHT22;29783;52.504;13.478;2023-02-07T00:55:27;-3272.30;92.60
44121;DHT22;29783;52.504;13.478;2023-02-07T00:57:52;-3272.30;92.70
44121;DHT22;29783;52.504;13.478;2023-02-07T01:00:18;-3272.30;92.50
44121;DHT22;29783;52.504;13.478;2023-02-07T01:02:44;-3272.20;92.50
44121;DHT22;29783;52.504;13.478;2023-02-07T01:05:10;-3272.20;92.50
44121;DHT22;29783;52.504;13.478;2023-02-07T01:07:35;-3272.20;92.50
44121;DHT22;29783;52.504;13.478;2023-02-07T01:10:01;-3272.30;92.50
44121;DHT22;29783;52.504;13.478;2023-02-07T01:12:27;-3272.30;92.80
44121;DHT22;29783;52.504;13.478;2023-02-07T01:14:53;-3272.40;93.00
44121;DHT22;29783;52.504;13.478;2023-02-07T01:17:19;-3272.30;92.60
44121;DHT22;29783;52.504;13.478;2023-02-07T01:19:45;-3272.30;92.60
44121;DHT22;29783;52.504;13.478;2023-02-07T01:22:10;-3272.30;92.60
44121;DHT22;29783;52.504;13.478;2023-02-07T01:24:36;-3272.20;92.40
44121;DHT22;29783;52.504;13.478;2023-02-07T01:27:03;-3272.20;92.30
44121;DHT22;29783;52.504;13.478;2023-02-07T01:29:28;-3272.20;92.30
44121;DHT22;29783;52.504;13.478;2023-02-07T01:31:54;-3272.20;92.30
44121;DHT22;29783;52.504;13.478;2023-02-07T01:34:20;-3272.20;92.20
44121;DHT22;29783;52.504;13.478;2023-02-07T01:36:46;-3272.20;92.20
44121;DHT22;29783;52.504;13.478;2023-02-07T01:39:12;-3272.20;92.10
44121;DHT22;29783;52.504;13.478;2023-02-07T01:41:37;-3272.20;92.00
44121;DHT22;29783;52.504;13.478;2023-02-07T01:44:07;-3272.10;92.00
44121;DHT22;29783;52.504;13.478;2023-02-07T01:46:34;-3272.10;92.10
44121;DHT22;29783;52.504;13.478;2023-02-07T01:49:09;-3272.10;92.10
44121;DHT22;29783;52.504;13.478;2023-02-07T01:51:36;-3272.10;92.00
44121;DHT22;29783;52.504;13.478;2023-02-07T01:54:06;-3272.10;92.10
44121;DHT22;29783;52.504;13.478;2023-02-07T01:56:34;-3272.00;92.00
44121;DHT22;29783;52.504;13.478;2023-02-07T01:59:03;-3272.10;92.10
44121;DHT22;29783;52.504;13.478;2023-02-07T02:01:30;-3272.00;92.10
44121;DHT22;29783;52.504;13.478;2023-02-07T02:03:56;-3272.00;92.00
44121;DHT22;29783;52.504;13.478;2023-02-07T02:06:24;-3272.10;92.00
44121;DHT22;29783;52.504;13.478;2023-02-07T02:08:56;-3272.00;91.90
44121;DHT22;29783;52.504;13.478;2023-02-07T02:14:28;-3272.00;91.90
44121;DHT22;29783;52.504;13.478;2023-02-07T02:17:14;-3272.10;92.10
44121;DHT22;29783;52.504;13.478;2023-02-07T02:22:54;-3272.20;92.30
44121;DHT22;29783;52.504;13.478;2023-02-07T02:31:19;-3271.90;92.10
44121;DHT22;29783;52.504;13.478;2023-02-07T02:33:53;-3271.90;92.00
44121;DHT22;29783;52.504;13.478;2023-02-07T02:39:50;-3271.80;91.70
44121;DHT22;29783;52.504;13.478;2023-02-07T02:45:17;-3271.80;91.60
44121;DHT22;29783;52.504;13.478;2023-02-07T02:47:47;-3271.70;91.50
44121;DHT22;29783;52.504;13.478;2023-02-07T02:50:18;-3271.70;91.50
44121;DHT22;29783;52.504;13.478;2023-02-07T02:52:45;-3271.70;91.50
44121;DHT22;29783;52.504;13.478;2023-02-07T02:55:11;-3271.70;91.50
44121;DHT22;29783;52.504;13.478;2023-02-07T03:11:03;-3272.00;92.70
44121;DHT22;29783;52.504;13.478;2023-02-07T03:16:23;-3271.80;92.30
44121;DHT22;29783;52.504;13.478;2023-02-07T03:19:12;-3271.70;91.80
44121;DHT22;29783;52.504;13.478;2023-02-07T03:21:50;-3271.60;91.70
44121;DHT22;29783;52.504;13.478;2023-02-07T03:24:28;-3271.60;91.60
44121;DHT22;29783;52.504;13.478;2023-02-07T03:26:57;-3271.50;91.50
44121;DHT22;29783;52.504;13.478;2023-02-07T03:29:26;-3271.50;91.40
44121;DHT22;29783;52.504;13.478;2023-02-07T03:31:56;-3271.50;91.30
44121;DHT22;29783;52.504;13.478;2023-02-07T03:34:29;-3271.50;91.50
44121;DHT22;29783;52.504;13.478;2023-02-07T03:36:57;-3271.40;91.40
44121;DHT22;29783;52.504;13.478;2023-02-07T03:39:25;-3271.40;91.70
44121;DHT22;29783;52.504;13.478;2023-02-07T03:42:03;-3271.40;91.80
44121;DHT22;29783;52.504;13.478;2023-02-07T03:44:32;-3271.40;91.70
44121;DHT22;29783;52.504;13.478;2023-02-07T03:46:59;-3271.40;91.60
44121;DHT22;29783;52.504;13.478;2023-02-07T03:49:24;-3271.40;91.50
44121;DHT22;29783;52.504;13.478;2023-02-07T03:51:50;-3271.40;91.60
44121;DHT22;29783;52.504;13.478;2023-02-07T03:54:16;-3271.30;91.40
44121;DHT22;29783;52.504;13.478;2023-02-07T03:56:42;-3271.30;91.30
44121;DHT22;29783;52.504;13.478;2023-02-07T03:59:08;-3271.20;91.30
44121;DHT22;29783;52.504;13.478;2023-02-07T04:01:34;-3271.20;91.50
44121;DHT22;29783;52.504;13.478;2023-02-07T04:04:05;-3271.20;91.50
44121;DHT22;29783;52.504;13.478;2023-02-07T04:06:31;-3271.20;91.50
44121;DHT22;29783;52.504;13.478;2023-02-07T04:08:57;-3271.20;91.40
44121;DHT22;29783;52.504;13.478;2023-02-07T04:11:23;-3271.20;91.60
44121;DHT22;29783;52.504;13.478;2023-02-07T04:13:48;-3271.20;91.40
44121;DHT22;29783;52.504;13.478;2023-02-07T04:16:14;-3271.20;91.40
44121;DHT22;29783;52.504;13.478;2023-02-07T04:18:40;-3271.20;91.60
44121;DHT22;29783;52.504;13.478;2023-02-07T04:21:07;-3271.20;91.80
44121;DHT22;29783;52.504;13.478;2023-02-07T04:23:34;-3271.20;91.70
44121;DHT22;29783;52.504;13.478;2023-02-07T04:26:00;-3271.20;91.80
44121;DHT22;29783;52.504;13.478;2023-02-07T04:28:27;-3271.20;91.90
44121;DHT22;29783;52.504;13.478;2023-02-07T04:30:53;-3271.20;91.70
44121;DHT22;29783;52.504;13.478;2023-02-07T04:33:19;-3271.30;91.60
44121;DHT22;29783;52.504;13.478;2023-02-07T04:35:56;-3271.20;91.50
44121;DHT22;29783;52.504;13.478;2023-02-07T04:38:22;-3271.20;91.40
44121;DHT22;29783;52.504;13.478;2023-02-07T04:40:48;-3271.20;91.50
44121;DHT22;29783;52.504;13.478;2023-02-07T04:43:14;-3271.30;91.60
44121;DHT22;29783;52.504;13.478;2023-02-07T04:45:39;-3271.40;92.10
44121;DHT22;29783;52.504;13.478;2023-02-07T04:48:05;-3271.30;91.80
44121;DHT22;29783;52.504;13.478;2023-02-07T04:50:31;-3271.30;91.70
44121;DHT22;29783;52.504;13.478;2023-02-07T04:52:57;-3271.30;91.60
44121;DHT22;29783;52.504;13.478;2023-02-07T04:55:23;-3271.20;91.60
44121;DHT22;29783;52.504;13.478;2023-02-07T04:57:48;-3271.30;91.70
44121;DHT22;29783;52.504;13.478;2023-02-07T05:00:14;-3271.20;91.50
44121;DHT22;29783;52.504;13.478;2023-02-07T05:02:40;-3271.20;91.30
44121;DHT22;29783;52.504;13.478;2023-02-07T05:05:06;-3271.20;91.30
44121;DHT22;29783;52.504;13.478;2023-02-07T05:07:32;-3271.20;91.30
44121;DHT22;29783;52.504;13.478;2023-02-07T05:09:58;-3271.30;91.90
44121;DHT22;29783;52.504;13.478;2023-02-07T05:12:24;-3271.30;91.80
44121;DHT22;29783;52.504;13.478;2023-02-07T05:14:49;-3271.20;91.50
44121;DHT22;29783;52.504;13.478;2023-02-07T05:17:15;-3271.10;91.20
44121;DHT22;29783;52.504;13.478;2023-02-07T05:19:41;-3271.10;91.10
44121;DHT22;29783;52.504;13.478;2023-02-07T05:22:07;-3271.10;91.20
44121;DHT22;29783;52.504;13.478;2023-02-07T05:24:33;-3271.00;91.20
44121;DHT22;29783;52.504;13.478;2023-02-07T05:26:59;-3271.10;91.60
44121;DHT22;29783;52.504;13.478;2023-02-07T05:29:25;-3271.10;91.50
44121;DHT22;29783;52.504;13.478;2023-02-07T05:31:51;-3271.00;91.40
44121;DHT22;29783;52.504;13.478;2023-02-07T05:34:35;-3271.00;91.50
44121;DHT22;29783;52.504;13.478;2023-02-07T05:37:01;-3271.00;91.40
44121;DHT22;29783;52.504;13.478;2023-02-07T05:39:27;-3271.00;91.20
44121;DHT22;29783;52.504;13.478;2023-02-07T05:41:53;-3270.90;91.00
44121;DHT22;29783;52.504;13.478;2023-02-07T05:44:18;-3270.90;91.10
44121;DHT22;29783;52.504;13.478;2023-02-07T05:46:44;-3271.10;91.60
44121;DHT22;29783;52.504;13.478;2023-02-07T05:49:10;-3271.00;91.40
44121;DHT22;29783;52.504;13.478;2023-02-07T05:51:36;-3271.00;91.40
44121;DHT22;29783;52.504;13.478;2023-02-07T05:54:01;-3270.90;91.00
44121;DHT22;29783;52.504;13.478;2023-02-07T05:56:27;-3270.90;91.20
44121;DHT22;29783;52.504;13.478;2023-02-07T05:58:53;-3270.80;90.90
44121;DHT22;29783;52.504;13.478;2023-02-07T06:01:19;-3270.80;91.00
44121;DHT22;29783;52.504;13.478;2023-02-07T06:03:44;-3270.80;91.00
44121;DHT22;29783;52.504;13.478;2023-02-07T06:06:10;-3270.90;91.10
44121;DHT22;29783;52.504;13.478;2023-02-07T06:08:36;-3270.90;91.10
44121;DHT22;29783;52.504;13.478;2023-02-07T06:11:02;-3270.90;91.00
44121;DHT22;29783;52.504;13.478;2023-02-07T06:13:28;-3270.90;91.10
44121;DHT22;29783;52.504;13.478;2023-02-07T06:15:54;-3270.90;91.00
44121;DHT22;29783;52.504;13.478;2023-02-07T06:18:19;-3271.00;91.20
44121;DHT22;29783;52.504;13.478;2023-02-07T06:20:45;-3271.00;91.10
44121;DHT22;29783;52.504;13.478;2023-02-07T06:23:11;-3270.90;91.10
44121;DHT22;29783;52.504;13.478;2023-02-07T06:25:37;-3271.00;91.30
44121;DHT22;29783;52.504;13.478;2023-02-07T06:28:03;-3271.00;91.60
44121;DHT22;29783;52.504;13.478;2023-02-07T06:30:29;-3270.90;91.10
44121;DHT22;29783;52.504;13.478;2023-02-07T06:32:55;-3270.90;91.00
44121;DHT22;29783;52.504;13.478;2023-02-07T06:35:20;-3270.80;91.00
44121;DHT22;29783;52.504;13.478;2023-02-07T06:37:46;-3270.90;90.90
44121;DHT22;29783;52.504;13.478;2023-02-07T06:40:12;-3270.80;91.00
44121;DHT22;29783;52.504;13.478;2023-02-07T06:42:38;-3271.00;91.40
44121;DHT22;29783;52.504;13.478;2023-02-07T06:45:04;-3271.10;91.20
44121;DHT22;29783;52.504;13.478;2023-02-07T06:47:29;-3271.10;91.20
44121;DHT22;29783;52.504;13.478;2023-02-07T06:49:55;-3271.10;91.30
44121;DHT22;29783;52.504;13.478;2023-02-07T06:52:21;-3271.20;91.40
44121;DHT22;29783;52.504;13.478;2023-02-07T06:54:47;-3271.20;91.50
44121;DHT22;29783;52.504;13.478;2023-02-07T06:57:12;-3271.20;91.50
44121;DHT22;29783;52.504;13.478;2023-02-07T06:59:38;-3271.50;92.10
44121;DHT22;29783;52.504;13.478;2023-02-07T07:02:04;-3271.40;91.70
44121;DHT22;29783;52.504;13.478;2023-02-07T07:04:30;-3271.40;91.60
44121;DHT22;29783;52.504;13.478;2023-02-07T07:06:55;-3271.40;91.60
44121;DHT22;29783;52.504;13.478;2023-02-07T07:09:21;-3271.40;91.60
44121;DHT22;29783;52.504;13.478;2023-02-07T07:11:47;-3271.40;91.70
44121;DHT22;29783;52.504;13.478;2023-02-07T07:14:13;-3271.50;92.00
44121;DHT22;29783;52.504;13.478;2023-02-07T07:16:39;-3271.50;92.10
44121;DHT22;29783;52.504;13.478;2023-02-07T07:19:07;-3271.60;92.10
44121;DHT22;29783;52.504;13.478;2023-02-07T07:21:33;-3271.70;92.60
44121;DHT22;29783;52.504;13.478;2023-02-07T07:23:59;-3271.80;92.70
44121;DHT22;29783;52.504;13.478;2023-02-07T07:26:25;-3271.90;92.60
44121;DHT22;29783;52.504;13.478;2023-02-07T07:28:51;-3271.90;92.50
44121;DHT22;29783;52.504;13.478;2023-02-07T07:31:22;-3271.90;92.50
44121;DHT22;29783;52.504;13.478;2023-02-07T07:33:48;-3272.00;92.40
44121;DHT22;29783;52.504;13.478;2023-02-07T07:36:13;-3272.00;92.30
44121;DHT22;29783;52.504;13.478;2023-02-07T07:38:39;-3272.00;92.40
44121;DHT22;29783;52.504;13.478;2023-02-07T07:41:05;-3272.10;92.50
44121;DHT22;29783;52.504;13.478;2023-02-07T07:43:31;-3272.00;92.40
44121;DHT22;29783;52.504;13.478;2023-02-07T07:45:57;-3272.10;92.50
44121;DHT22;29783;52.504;13.478;2023-02-07T07:48:26;-3272.20;92.50
44121;DHT22;29783;52.504;13.478;2023-02-07T07:50:52;-3272.20;92.40
44121;DHT22;29783;52.504;13.478;2023-02-07T07:53:19;-3272.20;92.40
44121;DHT22;29783;52.504;13.478;2023-02-07T07:55:53;-3272.30;92.60
44121;DHT22;29783;52.504;13.478;2023-02-07T07:58:20;-3272.30;92.60
44121;DHT22;29783;52.504;13.478;2023-02-07T08:00:46;-3272.40;92.60
44121;DHT22;29783;52.504;13.478;2023-02-07T08:03:13;-3272.40;92.80
44121;DHT22;29783;52.504;13.478;2023-02-07T08:05:39;-3272.50;92.90
44121;DHT22;29783;52.504;13.478;2023-02-07T08:08:06;-3272.60;93.00
44121;DHT22;29783;52.504;13.478;2023-02-07T08:10:32;-3272.70;93.10
44121;DHT22;29783;52.504;13.478;2023-02-07T08:12:57;-3272.80;93.20
44121;DHT22;29783;52.504;13.478;2023-02-07T08:15:24;-3272.80;93.20
44121;DHT22;29783;52.504;13.478;2023-02-07T08:17:49;-3272.90;93.20
44121;DHT22;29783;52.504;13.478;2023-02-07T08:20:15;-3273.00;93.30
44121;DHT22;29783;52.504;13.478;2023-02-07T08:22:41;-3273.20;93.60
44121;DHT22;29783;52.504;13.478;2023-02-07T08:25:07;-3273.20;93.20
44121;DHT22;29783;52.504;13.478;2023-02-07T08:27:33;-3273.20;93.20
44121;DHT22;29783;52.504;13.478;2023-02-07T08:29:59;-3273.20;93.30
44121;DHT22;29783;52.504;13.478;2023-02-07T08:32:25;-3273.30;93.40
44121;DHT22;29783;52.504;13.478;2023-02-07T08:34:51;-3273.40;93.50
44121;DHT22;29783;52.504;13.478;2023-02-07T08:37:17;-3273.50;93.50
44121;DHT22;29783;52.504;13.478;2023-02-07T08:39:43;-3273.70;93.70
44121;DHT22;29783;52.504;13.478;2023-02-07T08:42:10;-3274.10;93.10
44121;DHT22;29783;52.504;13.478;2023-02-07T08:44:36;-3274.50;92.40
44121;DHT22;29783;52.504;13.478;2023-02-07T08:47:02;-3274.30;91.90
44121;DHT22;29783;52.504;13.478;2023-02-07T08:49:28;-3274.20;92.00
44121;DHT22;29783;52.504;13.478;2023-02-07T08:51:54;-3274.20;92.20
44121;DHT22;29783;52.504;13.478;2023-02-07T08:54:20;-3274.10;92.30
44121;DHT22;29783;52.504;13.478;2023-02-07T08:56:46;-3274.20;92.80
44121;DHT22;29783;52.504;13.478;2023-02-07T08:59:12;-3274.20;92.90
44121;DHT22;29783;52.504;13.478;2023-02-07T09:01:39;-3274.40;93.20
44121;DHT22;29783;52.504;13.478;2023-02-07T09:04:04;-3274.70;93.00
44121;DHT22;29783;52.504;13.478;2023-02-07T09:06:30;-3274.90;91.90
44121;DHT22;29783;52.504;13.478;2023-02-07T09:08:57;-3275.20;90.50
44121;DHT22;29783;52.504;13.478;2023-02-07T09:11:23;-3275.00;90.70
44121;DHT22;29783;52.504;13.478;2023-02-07T09:13:49;-3275.00;90.70
44121;DHT22;29783;52.504;13.478;2023-02-07T09:16:15;-3275.10;90.30
44121;DHT22;29783;52.504;13.478;2023-02-07T09:18:41;-3275.40;89.50
44121;DHT22;29783;52.504;13.478;2023-02-07T09:21:07;-3275.70;88.30
44121;DHT22;29783;52.504;13.478;2023-02-07T09:23:33;-3275.60;88.80
44121;DHT22;29783;52.504;13.478;2023-02-07T09:26:05;-3275.60;89.60
44121;DHT22;29783;52.504;13.478;2023-02-07T09:28:31;-3275.60;91.70
44121;DHT22;29783;52.504;13.478;2023-02-07T09:30:57;-3275.70;92.30
44121;DHT22;29783;52.504;13.478;2023-02-07T09:33:23;-3275.70;92.70
44121;DHT22;29783;52.504;13.478;2023-02-07T09:35:49;-3275.80;93.00
44121;DHT22;29783;52.504;13.478;2023-02-07T09:38:19;-3275.70;92.70
44121;DHT22;29783;52.504;13.478;2023-02-07T09:40:48;-3275.70;91.80
44121;DHT22;29783;52.504;13.478;2023-02-07T09:43:45;-3275.80;92.40
44121;DHT22;29783;52.504;13.478;2023-02-07T09:49:33;-3275.80;91.50
44121;DHT22;29783;52.504;13.478;2023-02-07T09:52:01;-3275.90;91.50
44121;DHT22;29783;52.504;13.478;2023-02-07T09:54:34;-3276.10;91.80
44121;DHT22;29783;52.504;13.478;2023-02-07T09:57:24;-3276.20;92.00
44121;DHT22;29783;52.504;13.478;2023-02-07T10:00:13;-3276.40;92.20
44121;DHT22;29783;52.504;13.478;2023-02-07T10:02:47;-3276.50;91.50
44121;DHT22;29783;52.504;13.478;2023-02-07T10:05:19;-3276.50;89.50
44121;DHT22;29783;52.504;13.478;2023-02-07T10:07:46;-3276.50;87.40
44121;DHT22;29783;52.504;13.478;2023-02-07T10:10:31;-3276.60;88.70
44121;DHT22;29783;52.504;13.478;2023-02-07T10:22:21;0.10;88.90
44121;DHT22;29783;52.504;13.478;2023-02-07T10:27:26;0.30;88.80
44121;DHT22;29783;52.504;13.478;2023-02-07T10:32:41;0.30;87.40
44121;DHT22;29783;52.504;13.478;2023-02-07T10:35:21;0.30;86.60
44121;DHT22;29783;52.504;13.478;2023-02-07T10:37:52;0.40;86.60
44121;DHT22;29783;52.504;13.478;2023-02-07T10:40:25;0.50;86.60
44121;DHT22;29783;52.504;13.478;2023-02-07T10:43:04;0.50;81.40
44121;DHT22;29783;52.504;13.478;2023-02-07T10:45:31;0.60;83.50
44121;DHT22;29783;52.504;13.478;2023-02-07T10:47:57;0.70;85.30
44121;DHT22;29783;52.504;13.478;2023-02-07T10:50:25;0.70;82.80
44121;DHT22;29783;52.504;13.478;2023-02-07T10:52:53;1.00;81.00
44121;DHT22;29783;52.504;13.478;2023-02-07T10:57:59;1.10;78.90
44121;DHT22;29783;52.504;13.478;2023-02-07T11:00:30;1.10;78.30
44121;DHT22;29783;52.504;13.478;2023-02-07T11:03:11;1.00;76.40
44121;DHT22;29783;52.504;13.478;2023-02-07T11:05:57;1.20;77.20
44121;DHT22;29783;52.504;13.478;2023-02-07T11:08:26;1.30;79.00
44121;DHT22;29783;52.504;13.478;2023-02-07T11:10:58;1.30;76.00
44121;DHT22;29783;52.504;13.478;2023-02-07T11:13:27;1.30;75.80
44121;DHT22;29783;52.504;13.478;2023-02-07T11:16:01;1.40;75.80
44121;DHT22;29783;52.504;13.478;2023-02-07T11:18:44;1.40;77.00
44121;DHT22;29783;52.504;13.478;2023-02-07T11:21:24;1.50;73.90
44121;DHT22;29783;52.504;13.478;2023-02-07T11:23:51;1.50;74.80
44121;DHT22;29783;52.504;13.478;2023-02-07T11:26:20;1.50;73.90
44121;DHT22;29783;52.504;13.478;2023-02-07T11:28:52;1.70;75.20
44121;DHT22;29783;52.504;13.478;2023-02-07T11:31:28;1.80;73.60
44121;DHT22;29783;52.504;13.478;2023-02-07T11:33:54;1.80;72.00
44121;DHT22;29783;52.504;13.478;2023-02-07T11:36:32;2.00;71.60
44121;DHT22;29783;52.504;13.478;2023-02-07T11:38:59;2.20;71.90
44121;DHT22;29783;52.504;13.478;2023-02-07T11:41:30;2.10;69.30
44121;DHT22;29783;52.504;13.478;2023-02-07T11:44:00;2.10;69.90
44121;DHT22;29783;52.504;13.478;2023-02-07T11:46:46;2.10;69.10
44121;DHT22;29783;52.504;13.478;2023-02-07T11:49:28;1.80;69.00
44121;DHT22;29783;52.504;13.478;2023-02-07T11:52:04;1.90;68.50
44121;DHT22;29783;52.504;13.478;2023-02-07T11:54:30;1.90;68.70
44121;DHT22;29783;52.504;13.478;2023-02-07T11:57:14;2.10;68.80
44121;DHT22;29783;52.504;13.478;2023-02-07T12:00:07;2.20;68.00
44121;DHT22;29783;52.504;13.478;2023-02-07T12:02:31;2.20;67.10
44121;DHT22;29783;52.504;13.478;2023-02-07T12:05:28;2.20;67.30
44121;DHT22;29783;52.504;13.478;2023-02-07T12:07:59;2.30;67.40
44121;DHT22;29783;52.504;13.478;2023-02-07T12:10:36;2.30;66.80
44121;DHT22;29783;52.504;13.478;2023-02-07T12:15:56;2.40;66.80
44121;DHT22;29783;52.504;13.478;2023-02-07T12:21:13;2.70;66.20
44121;DHT22;29783;52.504;13.478;2023-02-07T12:24:02;2.40;65.90
44121;DHT22;29783;52.504;13.478;2023-02-07T12:26:49;2.40;66.30
44121;DHT22;29783;52.504;13.478;2023-02-07T12:40:46;2.40;64.50
44121;DHT22;29783;52.504;13.478;2023-02-07T12:43:29;2.40;64.10
44121;DHT22;29783;52.504;13.478;2023-02-07T12:51:30;2.70;62.60
44121;DHT22;29783;52.504;13.478;2023-02-07T12:57:26;3.10;61.50
44121;DHT22;29783;52.504;13.478;2023-02-07T13:00:07;4.00;60.20
44121;DHT22;29783;52.504;13.478;2023-02-07T13:03:01;5.30;55.70
44121;DHT22;29783;52.504;13.478;2023-02-07T13:08:40;6.90;49.00
44121;DHT22;29783;52.504;13.478;2023-02-07T13:11:23;7.70;47.00
44121;DHT22;29783;52.504;13.478;2023-02-07T13:16:43;6.90;47.50
44121;DHT22;29783;52.504;13.478;2023-02-07T13:19:47;7.20;46.80
44121;DHT22;29783;52.504;13.478;2023-02-07T13:24:45;7.50;43.40
44121;DHT22;29783;52.504;13.478;2023-02-07T13:27:16;7.50;44.10
44121;DHT22;29783;52.504;13.478;2023-02-07T13:29:45;8.00;44.00
44121;DHT22;29783;52.504;13.478;2023-02-07T13:32:21;9.80;39.90
44121;DHT22;29783;52.504;13.478;2023-02-07T13:37:22;10.40;38.20
44121;DHT22;29783;52.504;13.478;2023-02-07T13:40:23;11.50;35.80
44121;DHT22;29783;52.504;13.478;2023-02-07T13:48:33;13.30;30.50
44121;DHT22;29783;52.504;13.478;2023-02-07T13:56:10;12.30;33.10
44121;DHT22;29783;52.504;13.478;2023-02-07T13:58:56;11.30;33.90
44121;DHT22;29783;52.504;13.478;2023-02-07T14:01:50;10.80;34.80
44121;DHT22;29783;52.504;13.478;2023-02-07T14:04:18;10.30;35.90
44121;DHT22;29783;52.504;13.478;2023-02-07T14:09:30;11.00;35.40
44121;DHT22;29783;52.504;13.478;2023-02-07T14:14:41;11.90;34.00
44121;DHT22;29783;52.504;13.478;2023-02-07T14:19:57;10.50;36.00
44121;DHT22;29783;52.504;13.478;2023-02-07T14:28:05;10.10;37.10
44121;DHT22;29783;52.504;13.478;2023-02-07T14:33:19;10.30;36.60
44121;DHT22;29783;52.504;13.478;2023-02-07T14:38:44;11.70;33.50
44121;DHT22;29783;52.504;13.478;2023-02-07T14:41:26;11.40;34.30
44121;DHT22;29783;52.504;13.478;2023-02-07T14:43:54;11.30;34.00
44121;DHT22;29783;52.504;13.478;2023-02-07T14:46:33;10.70;34.70
44121;DHT22;29783;52.504;13.478;2023-02-07T14:49:17;9.80;36.40
44121;DHT22;29783;52.504;13.478;2023-02-07T14:51:50;9.20;38.20
44121;DHT22;29783;52.504;13.478;2023-02-07T15:02:42;8.40;39.40
44121;DHT22;29783;52.504;13.478;2023-02-07T15:05:22;8.40;39.60
44121;DHT22;29783;52.504;13.478;2023-02-07T15:08:03;8.50;39.90
44121;DHT22;29783;52.504;13.478;2023-02-07T15:10:40;9.30;38.70
44121;DHT22;29783;52.504;13.478;2023-02-07T15:13:30;9.90;37.50
44121;DHT22;29783;52.504;13.478;2023-02-07T15:16:02;10.60;35.50
44121;DHT22;29783;52.504;13.478;2023-02-07T15:18:32;10.70;35.40
44121;DHT22;29783;52.504;13.478;2023-02-07T15:20:59;10.10;36.00
44121;DHT22;29783;52.504;13.478;2023-02-07T15:23:28;9.80;37.30
44121;DHT22;29783;52.504;13.478;2023-02-07T15:25:55;10.00;36.70
44121;DHT22;29783;52.504;13.478;2023-02-07T15:28:27;10.10;37.70
44121;DHT22;29783;52.504;13.478;2023-02-07T15:33:24;9.40;38.70
44121;DHT22;29783;52.504;13.478;2023-02-07T15:35:50;8.70;40.30
44121;DHT22;29783;52.504;13.478;2023-02-07T15:38:24;7.30;43.00
44121;DHT22;29783;52.504;13.478;2023-02-07T15:40:52;6.40;45.50
44121;DHT22;29783;52.504;13.478;2023-02-07T15:43:30;5.80;47.00
44121;DHT22;29783;52.504;13.478;2023-02-07T15:46:05;5.20;48.80
44121;DHT22;29783;52.504;13.478;2023-02-07T15:48:33;4.70;50.60
44121;DHT22;29783;52.504;13.478;2023-02-07T15:51:09;4.30;51.70
44121;DHT22;29783;52.504;13.478;2023-02-07T15:53:36;4.10;52.80
44121;DHT22;29783;52.504;13.478;2023-02-07T15:56:04;3.80;53.80
44121;DHT22;29783;52.504;13.478;2023-02-07T15:58:35;3.60;54.90
44121;DHT22;29783;52.504;13.478;2023-02-07T16:01:13;3.20;56.10
44121;DHT22;29783;52.504;13.478;2023-02-07T16:03:44;2.90;57.20
44121;DHT22;29783;52.504;13.478;2023-02-07T16:08:45;2.50;60.10
44121;DHT22;29783;52.504;13.478;2023-02-07T16:16:26;1.80;61.80
44121;DHT22;29783;52.504;13.478;2023-02-07T16:19:19;1.80;62.30
44121;DHT22;29783;52.504;13.478;2023-02-07T16:22:11;1.60;63.00
44121;DHT22;29783;52.504;13.478;2023-02-07T16:24:39;1.50;64.30
44121;DHT22;29783;52.504;13.478;2023-02-07T16:27:06;1.30;64.60
44121;DHT22;29783;52.504;13.478;2023-02-07T16:29:34;1.30;65.40
44121;DHT22;29783;52.504;13.478;2023-02-07T16:32:00;1.10;67.00
44121;DHT22;29783;52.504;13.478;2023-02-07T16:34:26;1.00;67.10
44121;DHT22;29783;52.504;13.478;2023-02-07T16:36:55;0.90;67.60
44121;DHT22;29783;52.504;13.478;2023-02-07T16:39:22;0.80;70.10
44121;DHT22;29783;52.504;13.478;2023-02-07T16:41:55;0.70;70.40
44121;DHT22;29783;52.504;13.478;2023-02-07T16:44:25;0.50;70.60
44121;DHT22;29783;52.504;13.478;2023-02-07T16:46:52;0.40;71.00
44121;DHT22;29783;52.504;13.478;2023-02-07T16:49:24;0.30;71.30
44121;DHT22;29783;52.504;13.478;2023-02-07T16:51:50;0.20;71.50
44121;DHT22;29783;52.504;13.478;2023-02-07T16:54:16;0.20;72.20
44121;DHT22;29783;52.504;13.478;2023-02-07T16:56:43;0.10;72.60
44121;DHT22;29783;52.504;13.478;2023-02-07T16:59:15;0.00;73.00
44121;DHT22;29783;52.504;13.478;2023-02-07T17:01:43;0.00;73.60
44121;DHT22;29783;52.504;13.478;2023-02-07T17:04:12;0.00;74.20
44121;DHT22;29783;52.504;13.478;2023-02-07T17:06:40;-3276.70;74.40
44121;DHT22;29783;52.504;13.478;2023-02-07T17:09:24;-3276.70;74.70
44121;DHT22;29783;52.504;13.478;2023-02-07T17:11:51;-3276.60;74.80
44121;DHT22;29783;52.504;13.478;2023-02-07T17:14:18;-3276.70;75.20
44121;DHT22;29783;52.504;13.478;2023-02-07T17:16:43;-3276.70;75.00
44121;DHT22;29783;52.504;13.478;2023-02-07T17:19:20;-3276.70;75.20
44121;DHT22;29783;52.504;13.478;2023-02-07T17:21:50;-3276.70;75.30
44121;DHT22;29783;52.504;13.478;2023-02-07T17:24:16;0.10;75.10
44121;DHT22;29783;52.504;13.478;2023-02-07T17:26:45;0.20;74.90
44121;DHT22;29783;52.504;13.478;2023-02-07T17:29:13;0.30;74.70
44121;DHT22;29783;52.504;13.478;2023-02-07T17:31:39;0.40;74.70